Webcam

2020/09/28 04:20 EBBR 280420Z 23003KT 9999 BKN035 12/11 Q1008 NOSIG

Webcam

--- Refresh now ---